Gwinn, MI

3:46 PM EDT on July 27, 2016 (GMT -0400)
MesoWest | | Change Station

Elev 1107 ft 46.28 °N, 87.42 °W | Updated 36 minutes ago

Scattered Clouds
Scattered Clouds
73 °F
Feels Like 75 °F
N
8
Wind Variable Wind from NNE
Gusts 12.0 mph

Today
High -- | Low -- °F
--% Chance of Precip.
Yesterday
High -- | Low -- °F
Precip. -- in
Pressure 30.01 in
Visibility 10.0 miles
Clouds Scattered Clouds 9000 ft
Heat Index 75 °F
Dew Point 62 °F
Humidity 69%
Rainfall in
Snow Depth Not available.
6:25 AM 9:25 PM
Last Quarter, 40% visible
METAR KSAW 271945Z 04009KT 10SM SCT090 20/16 A3001
Pressure 30.01 in
Visibility 10.0 miles
Clouds Scattered Clouds 9000 ft
Heat Index 75 °F
Dew Point 62 °F
Humidity 69%
Rainfall in
Snow Depth Not available.
6:25 AM 9:25 PM
Last Quarter, 40% visible
METAR KSAW 271945Z 04009KT 10SM SCT090 20/16 A3001

10-Day Weather Forecast

Almanac

Astronomy

Jul. 27, 2016 Rise Set
Actual Time
Civil Twilight
Nautical Twilight
Astronomical Twilight
Moon
Length of Visible Light
Length of Day
Tomorrow will be .
, % of the Moon is Illuminated

Today's Extremes

State Highs State Lows

Community

WunderPhotos

Upload Photos

1,927,920 photos uploaded!

WunderBlog® & News

Nearby

Air Quality

  Air Quality AQ Index Pollutant
Not available.

Snow Depth

Station Depth Elevation

Earthquake Activity

City Distance Mag. Time & Date
Minimum magnitude displayed is 2.5.

Coastal Water Temperatures

Place Temperature

Stations

Nearby Weather Stations

Station Location Temp. Windchill Dew Point Humidity Wind Precip. Elev Updated Type
                   

Watches & Warnings

There are currently no watches in effect.